createdAt,value
2023-02-14T00:00:59.775Z,3.3
2023-02-14T00:15:41.861Z,3.1
2023-02-14T00:20:57.739Z,3.1
2023-02-14T00:23:03.024Z,3.1
2023-02-14T00:27:17.364Z,3.3
2023-02-14T00:33:34.250Z,3.2
2023-02-14T00:35:39.891Z,3.2
2023-02-14T00:37:45.646Z,3.2
2023-02-14T00:39:54.256Z,3.2
2023-02-14T00:41:59.883Z,3.2
2023-02-14T00:44:05.505Z,3.2
2023-02-14T00:48:16.739Z,3.3
2023-02-14T00:50:22.378Z,3.2
2023-02-14T00:52:27.995Z,3.1
2023-02-14T00:54:36.712Z,3
2023-02-14T00:56:42.335Z,3
2023-02-14T00:58:47.996Z,2.9
2023-02-14T01:05:04.856Z,2.6
2023-02-14T01:07:10.479Z,2.6
2023-02-14T01:09:19.155Z,2.6
2023-02-14T01:11:24.815Z,2.5
2023-02-14T01:13:30.409Z,2.4
2023-02-14T01:15:56.284Z,2.5
2023-02-14T01:18:01.901Z,2.5
2023-02-14T01:20:07.516Z,2.6
2023-02-14T01:22:16.232Z,2.6
2023-02-14T01:24:21.853Z,2.6
2023-02-14T01:26:27.531Z,2.6
2023-02-14T01:32:44.361Z,2.6
2023-02-14T01:36:58.661Z,2.7
2023-02-14T01:39:04.280Z,2.6
2023-02-14T01:41:09.897Z,2.6
2023-02-14T01:43:15.518Z,2.5
2023-02-14T01:45:21.159Z,2.5
2023-02-14T01:47:26.776Z,2.4
2023-02-14T01:49:32.574Z,2.5
2023-02-14T01:51:41.078Z,2.4
2023-02-14T01:53:46.705Z,2.4
2023-02-14T01:55:52.311Z,2.4
2023-02-14T01:57:57.933Z,2.4
2023-02-14T02:02:09.176Z,2.3
2023-02-14T02:04:14.797Z,2.4
2023-02-14T02:10:34.697Z,2.4
2023-02-14T02:11:39.059Z,2.4
2023-02-14T02:13:44.672Z,2.4
2023-02-14T02:17:55.886Z,2.4
2023-02-14T02:20:04.567Z,2.4
2023-02-14T02:22:10.204Z,2.4
2023-02-14T02:24:15.816Z,2.3
2023-02-14T02:28:27.005Z,2.2
2023-02-14T02:30:32.690Z,2.3
2023-02-14T02:32:38.185Z,2.2
2023-02-14T02:34:46.887Z,2.1
2023-02-14T02:36:52.465Z,2.1
2023-02-14T02:38:58.085Z,2.1
2023-02-14T02:41:03.730Z,2
2023-02-14T02:45:14.892Z,2
2023-02-14T02:47:20.503Z,1.9
2023-02-14T02:49:29.184Z,1.9
2023-02-14T02:51:34.790Z,1.8
2023-02-14T02:53:40.353Z,1.8
2023-02-14T02:59:57.126Z,1.9
2023-02-14T03:02:02.721Z,1.9
2023-02-14T03:04:11.405Z,2
2023-02-14T03:06:16.990Z,2
2023-02-14T03:08:22.595Z,2
2023-02-14T03:09:26.926Z,1.9
2023-02-14T03:11:32.544Z,2
2023-02-14T03:13:38.107Z,1.9
2023-02-14T03:15:43.757Z,1.9
2023-02-14T03:17:52.398Z,1.9
2023-02-14T03:19:57.993Z,1.9
2023-02-14T03:22:03.604Z,1.8
2023-02-14T03:24:09.206Z,1.7
2023-02-14T03:26:14.768Z,1.7
2023-02-14T03:28:20.374Z,1.7
2023-02-14T03:30:26.099Z,1.6
2023-02-14T03:32:34.629Z,1.7
2023-02-14T03:34:40.240Z,1.6
2023-02-14T03:36:45.856Z,1.7
2023-02-14T03:38:51.426Z,1.6
2023-02-14T03:40:57.250Z,1.8
2023-02-14T03:43:02.606Z,1.6
2023-02-14T03:45:08.247Z,1.6
2023-02-14T03:47:16.835Z,1.5
2023-02-14T03:49:22.486Z,1.6
2023-02-14T03:51:28.024Z,1.5
2023-02-14T03:53:33.620Z,1.5
2023-02-14T03:55:39.205Z,1.6
2023-02-14T03:57:44.805Z,1.5
2023-02-14T03:59:50.368Z,1.6
2023-02-14T04:07:14.562Z,1.5
2023-02-14T04:09:20.150Z,1.5
2023-02-14T04:11:27.359Z,1.6
2023-02-14T04:13:32.904Z,1.4
2023-02-14T04:15:41.585Z,1.4
2023-02-14T04:17:47.136Z,1.4
2023-02-14T04:19:52.715Z,1.4
2023-02-14T04:21:58.321Z,1.5
2023-02-14T04:26:09.470Z,1.5
2023-02-14T04:28:15.096Z,1.5
2023-02-14T04:32:29.344Z,1.6
2023-02-14T04:34:34.862Z,1.6
2023-02-14T04:36:40.444Z,1.5
2023-02-14T04:38:46.008Z,1.5
2023-02-14T04:40:51.573Z,1.4
2023-02-14T04:42:57.153Z,1.4
2023-02-14T04:45:05.794Z,1.4
2023-02-14T04:47:11.373Z,1.3
2023-02-14T04:49:16.950Z,1.3
2023-02-14T04:51:22.406Z,1.3
2023-02-14T04:53:27.972Z,1.3
2023-02-14T04:55:33.572Z,1.2
2023-02-14T04:57:39.092Z,1.2
2023-02-14T04:59:47.723Z,1.2
2023-02-14T05:06:30.321Z,1.2
2023-02-14T05:08:35.878Z,1.2
2023-02-14T05:10:41.433Z,1.2
2023-02-14T05:12:50.108Z,1.1
2023-02-14T05:14:55.641Z,1.1
2023-02-14T05:17:01.209Z,1.2
2023-02-14T05:19:06.758Z,1.2
2023-02-14T05:21:12.314Z,1.1
2023-02-14T05:23:17.848Z,1
2023-02-14T05:27:32.166Z,1.1
2023-02-14T05:29:37.567Z,1
2023-02-14T05:33:48.657Z,1
2023-02-14T05:42:13.894Z,1.2
2023-02-14T05:44:19.441Z,1.2
2023-02-14T05:46:24.989Z,1.1
2023-02-14T05:50:36.052Z,1.2
2023-02-14T05:54:47.145Z,1.1
2023-02-14T05:56:55.736Z,1.3
2023-02-14T05:59:01.286Z,1.2
2023-02-14T06:01:06.856Z,1.2
2023-02-14T06:02:11.211Z,1.2
2023-02-14T06:04:16.786Z,1.2
2023-02-14T06:06:22.208Z,1.2
2023-02-14T06:10:36.368Z,1.3
2023-02-14T06:12:41.912Z,1.3
2023-02-14T06:14:47.467Z,1.3
2023-02-14T06:16:53.025Z,1.3
2023-02-14T06:18:58.518Z,1.3
2023-02-14T06:21:04.059Z,1.4
2023-02-14T06:27:23.883Z,1.3
2023-02-14T06:29:29.283Z,1.3
2023-02-14T06:31:34.947Z,1.3
2023-02-14T06:33:40.368Z,1.1
2023-02-14T06:35:45.914Z,1.2
2023-02-14T06:40:00.058Z,1.2
2023-02-14T06:46:16.776Z,1.2
2023-02-14T06:52:33.307Z,1.3
2023-02-14T06:54:41.938Z,1.3
2023-02-14T06:56:47.521Z,1.4
2023-02-14T06:59:57.274Z,1.3
2023-02-14T07:02:02.826Z,1.4
2023-02-14T07:04:08.378Z,1.4
2023-02-14T07:06:13.881Z,1.4
2023-02-14T07:08:23.683Z,1.4
2023-02-14T07:10:28.039Z,1.4
2023-02-14T07:12:33.574Z,1.4
2023-02-14T07:14:39.102Z,1.5
2023-02-14T07:16:44.622Z,1.5
2023-02-14T07:18:50.180Z,1.5
2023-02-14T07:20:55.700Z,1.6
2023-02-14T07:23:04.371Z,1.8
2023-02-14T07:27:15.392Z,1.7
2023-02-14T07:31:26.549Z,1.8
2023-02-14T07:35:37.561Z,1.9
2023-02-14T07:37:46.226Z,2
2023-02-14T07:39:51.729Z,2.1
2023-02-14T07:41:57.282Z,2.2
2023-02-14T07:44:02.859Z,2.3
2023-02-14T07:46:08.445Z,2.4
2023-02-14T07:48:13.908Z,2.6
2023-02-14T07:50:19.472Z,2.7
2023-02-14T07:54:33.657Z,4.1
2023-02-14T07:59:49.137Z,6.3
2023-02-14T08:01:54.791Z,6.8
2023-02-14T08:04:00.400Z,7.4
2023-02-14T08:06:09.130Z,8
2023-02-14T08:08:14.747Z,7.9
2023-02-14T08:10:20.435Z,8.3
2023-02-14T08:12:26.104Z,8.3
2023-02-14T08:14:31.795Z,8.4
2023-02-14T08:16:37.470Z,8.7
2023-02-14T08:18:43.186Z,8.8
2023-02-14T08:20:52.002Z,8.9
2023-02-14T08:29:16.820Z,9
2023-02-14T08:33:26.471Z,9.5
2023-02-14T08:35:35.267Z,10.5
2023-02-14T08:39:46.851Z,11.3
2023-02-14T08:46:04.170Z,12.1
2023-02-14T08:48:10.028Z,12
2023-02-14T08:50:18.879Z,11.6
2023-02-14T08:52:24.650Z,11.8
2023-02-14T09:03:22.510Z,6.5
2023-02-14T09:05:28.326Z,6.3
2023-02-14T09:07:34.179Z,6.1
2023-02-14T09:09:39.933Z,6.1
2023-02-14T09:11:45.752Z,6.1
2023-02-14T09:13:51.555Z,6.2
2023-02-14T09:15:57.369Z,6.2
2023-02-14T09:18:06.209Z,6.3
2023-02-14T09:22:17.993Z,6.4
2023-02-14T09:24:23.532Z,6.4
2023-02-14T09:26:29.315Z,6.3
2023-02-14T09:28:35.063Z,6.4
2023-02-14T09:30:40.840Z,6.6
2023-02-14T09:32:49.673Z,6.7
2023-02-14T09:34:55.440Z,6.8
2023-02-14T09:37:01.189Z,6.9
2023-02-14T09:39:06.933Z,6.9
2023-02-14T09:41:12.681Z,7
2023-02-14T09:43:18.438Z,7
2023-02-14T09:45:24.162Z,7
2023-02-14T09:49:38.847Z,7.2
2023-02-14T09:51:44.443Z,7.3
2023-02-14T09:54:54.618Z,7.4
2023-02-14T09:57:00.370Z,7.4
2023-02-14T09:59:06.102Z,7.5
2023-02-14T10:01:15.010Z,7.6
2023-02-14T10:03:20.717Z,7.6
2023-02-14T10:05:27.452Z,7.6
2023-02-14T10:07:33.209Z,8.2
2023-02-14T10:09:38.952Z,10.9
2023-02-14T10:11:44.698Z,13.3
2023-02-14T10:13:52.039Z,14.1
2023-02-14T10:18:06.607Z,14.8
2023-02-14T10:22:18.145Z,15.7
2023-02-14T10:24:23.967Z,16.1
2023-02-14T10:26:29.722Z,16.5
2023-02-14T10:28:35.524Z,17
2023-02-14T10:30:44.415Z,16.8
2023-02-14T10:32:49.992Z,16.1
2023-02-14T10:34:55.726Z,13
2023-02-14T10:39:07.193Z,10.4
2023-02-14T10:41:12.898Z,10
2023-02-14T10:43:18.649Z,9.8
2023-02-14T10:45:27.509Z,9.9
2023-02-14T10:47:33.067Z,9.8
2023-02-14T10:49:38.798Z,9.7
2023-02-14T10:52:48.899Z,9.7
2023-02-14T10:57:00.359Z,9.9
2023-02-14T10:59:09.154Z,9.9
2023-02-14T11:03:20.648Z,10.1
2023-02-14T11:05:26.359Z,10.2
2023-02-14T11:07:32.090Z,10.3
2023-02-14T11:09:37.807Z,10.3
2023-02-14T11:11:43.522Z,10.3
2023-02-14T11:15:58.470Z,10.6
2023-02-14T11:18:03.691Z,10.7
2023-02-14T11:26:26.583Z,11.1
2023-02-14T11:28:35.286Z,11.1
2023-02-14T11:30:41.234Z,11.1
2023-02-14T11:32:46.734Z,11.4
2023-02-14T11:34:52.482Z,11.4
2023-02-14T11:36:58.210Z,11.6
2023-02-14T11:39:03.957Z,11.7
2023-02-14T11:41:09.679Z,11.7
2023-02-14T11:43:18.389Z,11.8
2023-02-14T11:47:29.860Z,11.9
2023-02-14T11:50:39.944Z,12
2023-02-14T11:54:51.441Z,12.2
2023-02-14T11:57:00.166Z,12.3
2023-02-14T11:59:05.897Z,12.4
2023-02-14T12:01:11.665Z,12.4
2023-02-14T12:03:17.428Z,12.4
2023-02-14T12:05:23.157Z,12.5
2023-02-14T12:07:28.927Z,12.6
2023-02-14T12:09:34.610Z,12.6
2023-02-14T12:13:49.080Z,12.6
2023-02-14T12:15:54.953Z,12.7
2023-02-14T12:18:00.575Z,12.7
2023-02-14T12:20:06.342Z,12.7
2023-02-14T12:22:12.109Z,12.9
2023-02-14T12:24:17.840Z,13
2023-02-14T12:26:26.568Z,13
2023-02-14T12:28:32.324Z,13
2023-02-14T12:30:38.090Z,12.9
2023-02-14T12:32:43.868Z,12.9
2023-02-14T12:34:49.618Z,13.1
2023-02-14T12:36:55.359Z,13.2
2023-02-14T12:39:01.121Z,13
2023-02-14T12:41:09.916Z,13
2023-02-14T12:43:15.628Z,12.9
2023-02-14T12:45:21.377Z,12.9
2023-02-14T12:47:52.681Z,13.1
2023-02-14T12:52:04.197Z,13.2
2023-02-14T12:54:12.953Z,13.2
2023-02-14T12:58:24.504Z,13.2
2023-02-14T13:00:30.264Z,13.1
2023-02-14T13:02:36.040Z,13.1
2023-02-14T13:04:41.848Z,13.1
2023-02-14T13:06:47.544Z,13.1
2023-02-14T13:08:56.299Z,13.1
2023-02-14T13:11:02.427Z,13.1
2023-02-14T13:13:07.824Z,13.1
2023-02-14T13:15:13.583Z,13.2
2023-02-14T13:17:19.352Z,13.2
2023-02-14T13:19:25.139Z,13.2
2023-02-14T13:21:30.887Z,13.4
2023-02-14T13:25:45.417Z,13.6
2023-02-14T13:27:51.155Z,13.6
2023-02-14T13:29:56.972Z,13.5
2023-02-14T13:32:02.765Z,13.4
2023-02-14T13:36:14.241Z,13.5
2023-02-14T13:38:22.972Z,13.5
2023-02-14T13:42:34.519Z,13.5
2023-02-14T13:43:39.013Z,13.5
2023-02-14T13:45:44.691Z,13.5
2023-02-14T13:49:56.341Z,13.5
2023-02-14T13:52:04.951Z,13.5
2023-02-14T13:56:16.469Z,13.5
2023-02-14T13:58:22.234Z,13.4
2023-02-14T14:00:28.068Z,13.4
2023-02-14T14:02:33.854Z,13.3
2023-02-14T14:04:39.564Z,13.3
2023-02-14T14:06:48.309Z,13.2
2023-02-14T14:08:54.085Z,13.2
2023-02-14T14:10:59.841Z,13.2
2023-02-14T14:13:05.615Z,13.2
2023-02-14T14:15:11.404Z,13.3
2023-02-14T14:17:17.186Z,13.4
2023-02-14T14:19:22.934Z,13.4
2023-02-14T14:21:31.681Z,13.3
2023-02-14T14:23:37.458Z,13.3
2023-02-14T14:25:43.245Z,13.3
2023-02-14T14:29:54.830Z,13.2
2023-02-14T14:40:26.605Z,13
2023-02-14T14:41:30.960Z,12.9
2023-02-14T14:43:36.745Z,12.9
2023-02-14T14:45:42.554Z,12.9
2023-02-14T14:47:48.288Z,12.8
2023-02-14T14:49:57.019Z,12.9
2023-02-14T14:52:02.791Z,13
2023-02-14T14:54:08.556Z,13.1
2023-02-14T14:56:14.334Z,13.4
2023-02-14T14:58:20.286Z,13.3
2023-02-14T15:00:25.883Z,12.9
2023-02-14T15:02:31.660Z,12.7
2023-02-14T15:04:40.436Z,12.6
2023-02-14T15:06:46.161Z,12.6
2023-02-14T15:08:51.980Z,12.6
2023-02-14T15:10:57.918Z,12.5
2023-02-14T15:13:03.487Z,12.5
2023-02-14T15:17:15.016Z,12.4
2023-02-14T15:19:23.754Z,12.4
2023-02-14T15:21:29.529Z,12.3
2023-02-14T15:23:35.287Z,12.3
2023-02-14T15:25:41.037Z,12.3
2023-02-14T15:29:53.472Z,12.4
2023-02-14T15:34:07.934Z,12.2
2023-02-14T15:36:13.668Z,12.2
2023-02-14T15:38:19.424Z,12.1
2023-02-14T15:39:23.812Z,12.1
2023-02-14T15:52:01.348Z,11.8
2023-02-14T15:54:07.107Z,11.8
2023-02-14T15:56:12.854Z,11.8
2023-02-14T16:02:33.253Z,11.6
2023-02-14T16:06:44.629Z,11.6
2023-02-14T16:08:50.363Z,11.5
2023-02-14T16:10:56.116Z,11.5
2023-02-14T16:13:01.858Z,11.4
2023-02-14T16:15:07.615Z,11.4
2023-02-14T16:19:23.648Z,11.3
2023-02-14T16:29:52.432Z,11.1
2023-02-14T16:32:15.050Z,11
2023-02-14T16:34:06.822Z,11
2023-02-14T16:36:12.570Z,10.9
2023-02-14T16:38:43.990Z,10.8
2023-02-14T16:40:49.628Z,10.8
2023-02-14T16:42:55.359Z,10.7
2023-02-14T16:45:04.075Z,10.6
2023-02-14T16:49:15.558Z,10.4
2023-02-14T16:51:21.393Z,10.4
2023-02-14T16:53:27.143Z,10.4
2023-02-14T16:57:38.584Z,10.2
2023-02-14T16:59:47.316Z,10.2
2023-02-14T17:01:53.065Z,10.1
2023-02-14T17:03:58.862Z,10.1
2023-02-14T17:06:04.720Z,10.1
2023-02-14T17:08:10.410Z,10.1
2023-02-14T17:10:16.137Z,10
2023-02-14T17:14:30.756Z,9.9
2023-02-14T17:16:36.460Z,9.9
2023-02-14T17:18:42.286Z,9.8
2023-02-14T17:20:48.113Z,9.6
2023-02-14T17:22:53.835Z,9.5
2023-02-14T17:24:59.562Z,9.5
2023-02-14T17:27:05.379Z,9.4
2023-02-14T17:29:14.160Z,9.5
2023-02-14T17:31:20.103Z,9.4
2023-02-14T17:33:25.786Z,9.3
2023-02-14T17:34:30.149Z,9.3
2023-02-14T17:42:56.306Z,9.2
2023-02-14T17:45:02.242Z,9.2
2023-02-14T17:47:07.843Z,9.1
2023-02-14T17:49:13.623Z,9.1
2023-02-14T17:51:19.460Z,9.1
2023-02-14T17:59:45.783Z,9
2023-02-14T18:01:51.605Z,8.9
2023-02-14T18:03:57.401Z,8.8
2023-02-14T18:06:03.385Z,8.7
2023-02-14T18:10:14.769Z,8.6
2023-02-14T18:12:23.677Z,8.5
2023-02-14T18:16:35.275Z,8.5
2023-02-14T18:20:46.856Z,8.4
2023-02-14T18:24:58.435Z,8.2
2023-02-14T18:27:07.315Z,8.1
2023-02-14T18:29:13.117Z,8.1
2023-02-14T18:31:19.050Z,8
2023-02-14T18:32:23.357Z,8
2023-02-14T18:36:34.890Z,7.8
2023-02-14T18:38:40.692Z,7.8
2023-02-14T18:40:49.548Z,7.6
2023-02-14T18:42:55.304Z,7.7
2023-02-14T18:45:01.124Z,7.7
2023-02-14T18:51:18.437Z,7.5
2023-02-14T18:53:24.170Z,7.4
2023-02-14T18:55:33.050Z,7.4
2023-02-14T18:57:38.798Z,7.3
2023-02-14T18:59:44.536Z,7.3
2023-02-14T19:01:50.373Z,7.2
2023-02-14T19:03:56.367Z,7.1
2023-02-14T19:06:01.875Z,7
2023-02-14T19:10:16.471Z,6.9
2023-02-14T19:12:22.210Z,6.9
2023-02-14T19:14:27.958Z,6.8
2023-02-14T19:16:33.841Z,6.8
2023-02-14T19:20:45.241Z,6.7
2023-02-14T19:27:05.520Z,6.6
2023-02-14T19:29:11.253Z,6.5
2023-02-14T19:30:15.761Z,6.4
2023-02-14T19:32:21.503Z,6.4
2023-02-14T19:34:29.231Z,6.3
2023-02-14T19:38:41.722Z,6.1
2023-02-14T19:40:47.675Z,6.1
2023-02-14T19:42:53.332Z,6.1
2023-02-14T19:44:58.914Z,6.1
2023-02-14T19:47:19.281Z,6
2023-02-14T19:51:16.090Z,6.1
2023-02-14T19:53:24.908Z,6.1
2023-02-14T19:59:42.061Z,6.1
2023-02-14T20:03:53.523Z,6.1
2023-02-14T20:05:59.231Z,6
2023-02-14T20:08:08.037Z,5.9
2023-02-14T20:10:13.764Z,5.9
2023-02-14T20:12:19.440Z,5.7
2023-02-14T20:14:25.166Z,5.6
2023-02-14T20:16:30.913Z,5.5
2023-02-14T20:18:36.579Z,5.4
2023-02-14T20:20:42.266Z,5.4
2023-02-14T20:24:56.773Z,5.4
2023-02-14T20:27:02.496Z,5.4
2023-02-14T20:29:33.972Z,5.3
2023-02-14T20:31:39.814Z,5.3
2023-02-14T20:33:45.387Z,5.3
2023-02-14T20:35:54.161Z,5.3
2023-02-14T20:40:05.572Z,5.3
2023-02-14T20:48:28.357Z,5.1
2023-02-14T20:50:37.112Z,5.1
2023-02-14T20:52:42.805Z,5
2023-02-14T20:54:48.504Z,5
2023-02-14T20:56:54.198Z,4.9
2023-02-14T20:58:59.884Z,4.9
2023-02-14T21:01:05.643Z,4.9
2023-02-14T21:03:11.273Z,4.9
2023-02-14T21:05:20.014Z,4.8
2023-02-14T21:09:31.392Z,4.8
2023-02-14T21:11:37.064Z,4.7
2023-02-14T21:13:42.777Z,4.7
2023-02-14T21:15:48.535Z,4.8
2023-02-14T21:17:54.121Z,4.7
2023-02-14T21:24:14.250Z,4.8
2023-02-14T21:27:24.315Z,4.8
2023-02-14T21:31:35.815Z,4.7
2023-02-14T21:33:44.397Z,4.7
2023-02-14T21:35:50.088Z,4.8
2023-02-14T21:40:01.408Z,4.8
2023-02-14T21:42:07.081Z,4.8
2023-02-14T21:44:12.772Z,4.8
2023-02-14T21:46:18.498Z,4.8
2023-02-14T21:48:27.158Z,4.7
2023-02-14T21:50:32.841Z,4.7
2023-02-14T21:52:38.542Z,4.7
2023-02-14T21:54:44.167Z,4.6
2023-02-14T21:56:49.990Z,4.6
2023-02-14T21:58:55.589Z,4.6
2023-02-14T22:01:01.434Z,4.5
2023-02-14T22:03:11.691Z,4.4
2023-02-14T22:05:15.605Z,4.4
2023-02-14T22:07:21.284Z,4.3
2023-02-14T22:09:26.902Z,4.2
2023-02-14T22:13:38.237Z,4.2
2023-02-14T22:15:43.900Z,4.2
2023-02-14T22:17:54.229Z,4.2
2023-02-14T22:19:59.832Z,4.1
2023-02-14T22:22:05.503Z,4.1
2023-02-14T22:23:09.847Z,4
2023-02-14T22:25:15.508Z,4
2023-02-14T22:27:21.174Z,4
2023-02-14T22:29:26.799Z,4
2023-02-14T22:31:35.749Z,3.9
2023-02-14T22:33:41.182Z,3.9
2023-02-14T22:42:03.783Z,3.8
2023-02-14T22:44:09.424Z,3.8
2023-02-14T22:46:18.247Z,3.8
2023-02-14T22:48:23.842Z,3.8
2023-02-14T22:50:29.464Z,3.8
2023-02-14T22:52:35.089Z,3.8
2023-02-14T22:56:46.362Z,3.8
2023-02-14T22:58:52.011Z,3.8
2023-02-14T23:01:00.752Z,3.8
2023-02-14T23:03:06.443Z,3.8
2023-02-14T23:05:12.033Z,3.7
2023-02-14T23:07:17.654Z,3.6
2023-02-14T23:09:23.273Z,3.6
2023-02-14T23:11:28.914Z,3.6
2023-02-14T23:13:34.554Z,3.5
2023-02-14T23:15:43.384Z,3.5
2023-02-14T23:19:54.485Z,3.4
2023-02-14T23:20:58.852Z,3.5
2023-02-14T23:23:04.470Z,3.5
2023-02-14T23:27:16.178Z,3.4
2023-02-14T23:29:24.905Z,3.3
2023-02-14T23:31:30.548Z,3.3
2023-02-14T23:33:36.127Z,3.3
2023-02-14T23:37:47.386Z,3.3
2023-02-14T23:39:52.972Z,3.3
2023-02-14T23:41:58.612Z,3.1
2023-02-14T23:44:07.376Z,3
2023-02-14T23:46:12.959Z,3
2023-02-14T23:48:18.558Z,3
2023-02-14T23:50:24.153Z,3
2023-02-14T23:52:29.778Z,2.9
2023-02-14T23:54:35.397Z,2.8
2023-02-14T23:56:40.984Z,2.9
2023-02-14T23:58:49.687Z,3
